Time;durP1;ratioP1;P1;durP2;ratioP2;P2;SDS_P1;SDS_P2;PMS_P1;PMS_P2;Temp;Humidity;BMP_temperature;BMP_pressure;BME280_temperature;BME280_humidity;BME280_pressure;Samples;Min_cycle;Max_cycle;Signal;HPM_P1;HPM_P2
2023/07/14 00:02:14;;;;;;;;;;;;;;;29.64;37.72;94568.78;4884765;29;7146;-61
2023/07/14 00:04:45;;;;;;;;;;;;;;;29.60;37.32;94562.81;4910783;29;7003;-61
2023/07/14 00:07:15;;;;;;;;;;;;;;;29.62;37.82;94563.03;4925462;28;7428;-61
2023/07/14 00:10:19;;;;;;;;;;;;;;;29.63;37.69;94558.97;4988833;28;9033;-61
2023/07/14 00:12:49;;;;;;;;;;;;;;;29.60;37.82;94548.97;5048484;28;9081;-61
2023/07/14 00:15:23;;;;;;;;;;;;;;;29.62;37.21;94554.72;5050413;28;7189;-61
2023/07/14 00:18:20;;;;;;;;;;;;;;;29.62;36.93;94546.41;5049992;28;7289;-61
2023/07/14 00:20:46;;;;;;;;;;;;;;;29.59;37.44;94550.22;5050643;28;7210;-61
2023/07/14 00:23:26;;;;;;;;;;;;;;;29.59;37.44;94539.91;5053222;28;7360;-61
2023/07/14 00:25:58;;;;;;;;;;;;;;;29.60;37.05;94544.16;5036264;28;7482;-61
2023/07/14 00:28:25;;;;;;;;;;;;;;;29.59;36.98;94533.59;5035165;28;7107;-62
2023/07/14 00:30:51;;;;;;;;;;;;;;;29.58;37.76;94537.66;5034282;28;8919;-61
2023/07/14 00:33:19;;;;;;;;;;;;;;;29.59;36.78;94533.59;5034615;28;6969;-62
2023/07/14 00:35:56;;;;;;;;;;;;;;;29.59;37.25;94533.59;5035402;28;9229;-60
2023/07/14 00:38:36;;;;;;;;;;;;;;;29.58;36.83;94532.13;5051756;28;9340;-60
2023/07/14 00:41:18;;;;;;;;;;;;;;;29.57;36.95;94522.31;5035734;28;7013;-60
2023/07/14 00:43:49;;;;;;;;;;;;;;;29.59;36.71;94525.28;5043805;28;9151;-60
2023/07/14 00:46:49;;;;;;;;;;;;;;;29.59;36.60;94523.28;5053032;28;7285;-60
2023/07/14 00:49:34;;;;;;;;;;;;;;;29.57;36.92;94525.81;5033742;28;7141;-60
2023/07/14 00:52:29;;;;;;;;;;;;;;;29.58;36.39;94521.75;5051922;28;9186;-60
2023/07/14 00:55:39;;;;;;;;;;;;;;;29.58;36.40;94521.03;5034887;28;7413;-60
2023/07/14 00:58:18;;;;;;;;;;;;;;;29.53;36.86;94513.56;4931798;29;7178;-60
2023/07/14 01:01:03;;;;;;;;;;;;;;;29.54;36.81;94509.50;4913485;29;8757;-60
2023/07/14 01:03:32;;;;;;;;;;;;;;;29.52;37.28;94503.75;5003337;28;7261;-60
2023/07/14 01:06:02;;;;;;;;;;;;;;;29.51;36.51;94505.81;5030893;28;7013;-60
2023/07/14 01:08:31;;;;;;;;;;;;;;;29.51;36.56;94502.28;5033644;28;7003;-60
2023/07/14 01:11:07;;;;;;;;;;;;;;;29.52;35.82;94500.97;5032562;28;9045;-60
2023/07/14 01:13:35;;;;;;;;;;;;;;;29.51;36.35;94502.28;5034410;28;7031;-60
2023/07/14 01:16:04;;;;;;;;;;;;;;;29.53;36.68;94496.94;5033053;28;6952;-61
2023/07/14 01:18:34;;;;;;;;;;;;;;;29.52;36.66;94492.66;5032101;28;7273;-60
2023/07/14 01:21:01;;;;;;;;;;;;;;;29.52;36.35;94495.44;5030473;28;7279;-60
2023/07/14 01:24:23;;;;;;;;;;;;;;;29.54;35.81;94499.16;5048555;28;7304;-60
2023/07/14 01:27:07;;;;;;;;;;;;;;;29.54;36.28;94488.09;4951702;28;7527;-60
2023/07/14 01:30:01;;;;;;;;;;;;;;;29.54;36.18;94496.41;4953581;28;7060;-60
2023/07/14 01:32:39;;;;;;;;;;;;;;;29.52;36.26;94476.78;4971158;28;7238;-60
2023/07/14 01:35:27;;;;;;;;;;;;;;;29.50;35.49;94478.59;4964593;28;7020;-60
2023/07/14 01:37:54;;;;;;;;;;;;;;;29.51;35.96;94467.00;4971501;28;9077;-61
2023/07/14 01:40:41;;;;;;;;;;;;;;;29.52;36.33;94462.19;4971346;28;8737;-60
2023/07/14 01:43:12;;;;;;;;;;;;;;;29.52;36.36;94457.38;4971281;28;7562;-60
2023/07/14 01:46:01;;;;;;;;;;;;;;;29.53;36.65;94460.91;4967253;28;7408;-61
2023/07/14 01:48:50;;;;;;;;;;;;;;;29.52;35.78;94460.16;4964094;28;9141;-61
2023/07/14 01:51:50;;;;;;;;;;;;;;;29.50;35.56;94459.19;4973485;28;8808;-61
2023/07/14 01:54:42;;;;;;;;;;;;;;;29.49;36.47;94460.50;4911517;29;6991;-62
2023/07/14 01:57:24;;;;;;;;;;;;;;;29.46;35.92;94459.53;4903319;29;8990;-62
2023/07/14 02:00:09;;;;;;;;;;;;;;;29.46;36.63;94453.25;4916466;29;8186;-61
2023/07/14 02:02:40;;;;;;;;;;;;;;;29.44;36.08;94455.81;4930583;28;6989;-62
2023/07/14 02:05:36;;;;;;;;;;;;;;;29.42;36.57;94448.03;4976090;28;7004;-62
2023/07/14 02:08:32;;;;;;;;;;;;;;;29.41;35.97;94443.00;4969490;28;7255;-62
2023/07/14 02:11:21;;;;;;;;;;;;;;;29.41;36.27;94443.00;4900413;29;9375;-62
2023/07/14 02:13:59;;;;;;;;;;;;;;;29.41;36.22;94437.47;4900398;29;8815;-61
2023/07/14 02:16:44;;;;;;;;;;;;;;;29.41;36.20;94429.16;4911638;29;9478;-61
2023/07/14 02:19:21;;;;;;;;;;;;;;;29.39;36.33;94431.72;4915491;29;7104;-61
2023/07/14 02:21:51;;;;;;;;;;;;;;;29.38;36.60;94430.25;4899855;29;8278;-62
2023/07/14 02:24:33;;;;;;;;;;;;;;;29.35;35.54;94434.06;4915825;29;7011;-61
2023/07/14 02:27:03;;;;;;;;;;;;;;;29.35;36.40;94431.28;4898942;29;7230;-61
2023/07/14 02:29:36;;;;;;;;;;;;;;;29.36;36.02;94432.81;4916720;28;7275;-61
2023/07/14 02:32:08;;;;;;;;;;;;;;;29.35;35.58;94436.84;4947591;28;9056;-61
2023/07/14 02:35:10;;;;;;;;;;;;;;;29.35;36.59;94428.53;4973663;28;7421;-61
2023/07/14 02:38:25;;;;;;;;;;;;;;;29.33;35.73;94420.75;4951237;28;8188;-62
2023/07/14 02:41:26;;;;;;;;;;;;;;;29.33;36.42;94428.31;4895582;29;7257;-61
2023/07/14 02:44:02;;;;;;;;;;;;;;;29.33;36.13;94422.78;4861171;29;7178;-61
2023/07/14 02:47:11;;;;;;;;;;;;;;;29.33;35.91;94420.75;4875083;29;6980;-61
2023/07/14 02:50:29;;;;;;;;;;;;;;;29.32;36.11;94413.72;4841377;29;7359;-61
2023/07/14 02:53:05;;;;;;;;;;;;;;;29.30;35.83;94424.59;4783260;29;7705;-61
2023/07/14 02:55:51;;;;;;;;;;;;;;;29.30;36.11;94424.59;4781650;29;7746;-60
2023/07/14 02:58:28;;;;;;;;;;;;;;;29.28;36.08;94415.31;4784029;29;7715;-60
2023/07/14 03:00:54;;;;;;;;;;;;;;;29.29;35.71;94419.59;4801635;29;7493;-61
2023/07/14 03:03:58;;;;;;;;;;;;;;;29.29;35.41;94425.13;4777695;29;8502;-60
2023/07/14 03:06:24;;;;;;;;;;;;;;;29.29;35.82;94422.34;4729848;30;7348;-60
2023/07/14 03:08:52;;;;;;;;;;;;;;;29.30;35.81;94421.06;4731588;30;8555;-61
2023/07/14 03:11:28;;;;;;;;;;;;;;;29.31;36.22;94426.09;4761884;30;7497;-60
2023/07/14 03:13:56;;;;;;;;;;;;;;;29.25;36.19;94421.94;4759311;30;7779;-60
2023/07/14 03:16:31;;;;;;;;;;;;;;;29.25;36.08;94416.41;4785148;29;8274;-60
2023/07/14 03:19:07;;;;;;;;;;;;;;;29.25;36.45;94419.19;4819340;29;7809;-60
2023/07/14 03:21:33;;;;;;;;;;;;;;;29.24;35.47;94414.91;4837082;29;7643;-61
2023/07/14 03:24:00;;;;;;;;;;;;;;;29.25;35.96;94416.41;4888945;29;6986;-60
2023/07/14 03:26:28;;;;;;;;;;;;;;;29.24;35.45;94417.66;4913921;28;9080;-60
2023/07/14 03:29:18;;;;;;;;;;;;;;;29.22;35.71;94418.22;4973723;28;9032;-60
2023/07/14 03:32:00;;;;;;;;;;;;;;;29.21;35.53;94416.72;4956982;28;7319;-60
2023/07/14 03:34:49;;;;;;;;;;;;;;;29.22;36.31;94417.47;4971439;28;9714;-60
2023/07/14 03:37:23;;;;;;;;;;;;;;;29.20;35.85;94406.16;5012175;28;8756;-60
2023/07/14 03:40:05;;;;;;;;;;;;;;;29.23;35.98;94413.44;5053581;28;9108;-61
2023/07/14 03:43:09;;;;;;;;;;;;;;;29.21;35.94;94405.63;5053969;28;7069;-60
2023/07/14 03:45:56;;;;;;;;;;;;;;;29.21;35.91;94394.53;4956233;28;7226;-60
2023/07/14 03:48:31;;;;;;;;;;;;;;;29.19;36.00;94397.09;4967177;28;7063;-60
2023/07/14 03:51:13;;;;;;;;;;;;;;;29.17;35.24;94388.59;4952448;28;7256;-60
2023/07/14 03:53:41;;;;;;;;;;;;;;;29.16;35.29;94391.88;4969484;28;7258;-60
2023/07/14 03:56:10;;;;;;;;;;;;;;;29.19;35.21;94393.63;4968012;28;7189;-60
2023/07/14 03:58:38;;;;;;;;;;;;;;;29.19;35.32;94390.84;4966260;28;7035;-61
2023/07/14 04:01:04;;;;;;;;;;;;;;;29.15;35.49;94385.59;4969799;28;7238;-60
2023/07/14 04:03:31;;;;;;;;;;;;;;;29.16;35.94;94392.66;4965877;28;7439;-60
2023/07/14 04:06:30;;;;;;;;;;;;;;;29.16;35.68;94389.09;4971369;28;9469;-56
2023/07/14 04:09:00;;;;;;;;;;;;;;;29.14;36.23;94380.59;4919096;29;8877;-56
2023/07/14 04:11:40;;;;;;;;;;;;;;;29.13;35.58;94381.84;4923517;29;7235;-56
2023/07/14 04:14:07;;;;;;;;;;;;;;;29.10;35.90;94367.06;4925996;29;7129;-56
2023/07/14 04:16:50;;;;;;;;;;;;;;;29.13;35.90;94382.59;4908867;29;7081;-56
2023/07/14 04:19:17;;;;;;;;;;;;;;;29.13;35.51;94381.84;4892532;29;6923;-56
2023/07/14 04:21:50;;;;;;;;;;;;;;;29.13;35.54;94382.59;4972705;28;7273;-56
2023/07/14 04:24:25;;;;;;;;;;;;;;;29.14;35.73;94377.81;4973496;28;9163;-56
2023/07/14 04:26:54;;;;;;;;;;;;;;;29.14;35.40;94373.03;4974322;28;7539;-57
2023/07/14 04:29:32;;;;;;;;;;;;;;;29.13;35.60;94368.00;4991585;28;7304;-57
2023/07/14 04:32:35;;;;;;;;;;;;;;;29.12;36.02;94369.31;4975065;28;7243;-56
2023/07/14 04:35:29;;;;;;;;;;;;;;;29.12;35.82;94367.28;4922312;29;8921;-57
2023/07/14 04:37:55;;;;;;;;;;;;;;;29.10;35.69;94373.34;4920058;29;7248;-56
2023/07/14 04:40:21;;;;;;;;;;;;;;;29.10;35.68;94362.25;4893604;29;7034;-56
2023/07/14 04:43:00;;;;;;;;;;;;;;;29.09;36.23;94360.78;4922803;29;7501;-56
2023/07/14 04:45:26;;;;;;;;;;;;;;;29.12;35.92;94369.31;4958148;28;7171;-56
2023/07/14 04:47:57;;;;;;;;;;;;;;;29.14;35.41;94358.44;4954409;28;7401;-57
2023/07/14 04:50:33;;;;;;;;;;;;;;;29.13;35.72;94362.47;4969589;28;9096;-56
2023/07/14 04:52:59;;;;;;;;;;;;;;;29.12;35.74;94358.22;4969685;28;9434;-56
2023/07/14 04:55:30;;;;;;;;;;;;;;;29.10;35.93;94345.63;4966642;28;7490;-56
2023/07/14 04:57:59;;;;;;;;;;;;;;;29.09;35.61;94349.69;4967549;28;7285;-56
2023/07/14 05:00:28;;;;;;;;;;;;;;;29.12;35.28;94347.16;4967372;28;9116;-56
2023/07/14 05:02:54;;;;;;;;;;;;;;;29.08;35.96;94350.97;4965057;28;8212;-56
2023/07/14 05:05:24;;;;;;;;;;;;;;;29.12;35.61;94349.91;4953920;28;7033;-56
2023/07/14 05:07:52;;;;;;;;;;;;;;;29.15;36.31;94346.06;4969582;28;7070;-56
2023/07/14 05:10:22;;;;;;;;;;;;;;;29.13;36.03;94337.53;5031990;28;6928;-56
2023/07/14 05:13:09;;;;;;;;;;;;;;;29.08;35.84;94339.91;5034365;28;7065;-56
2023/07/14 05:15:43;;;;;;;;;;;;;;;29.12;36.00;94352.69;5031112;28;7471;-62
2023/07/14 05:18:13;;;;;;;;;;;;;;;29.09;35.79;94351.72;5050390;28;7007;-62
2023/07/14 05:21:15;;;;;;;;;;;;;;;29.09;35.98;94349.69;5048575;28;9086;-62
2023/07/14 05:23:45;;;;;;;;;;;;;;;29.08;35.38;94345.44;5047686;28;7872;-62
2023/07/14 05:26:13;;;;;;;;;;;;;;;29.13;36.17;94340.31;5040977;28;7171;-63
2023/07/14 05:28:50;;;;;;;;;;;;;;;29.13;35.54;94332.00;5046303;28;7189;-63
2023/07/14 05:31:20;;;;;;;;;;;;;;;29.10;35.87;94340.09;5031400;28;7175;-63
2023/07/14 05:33:49;;;;;;;;;;;;;;;29.10;35.92;94342.88;5045787;28;7861;-63
2023/07/14 05:36:25;;;;;;;;;;;;;;;29.12;36.74;94345.13;5047520;28;7261;-64
2023/07/14 05:38:52;;;;;;;;;;;;;;;29.15;36.40;94344.03;5029253;28;7329;-62
2023/07/14 05:41:18;;;;;;;;;;;;;;;29.13;36.34;94341.06;5014581;28;9040;-61
2023/07/14 05:43:46;;;;;;;;;;;;;;;29.12;36.81;94347.16;5029860;28;9696;-62
2023/07/14 05:46:21;;;;;;;;;;;;;;;29.11;35.54;94346.38;5049521;28;7622;-61
2023/07/14 05:48:49;;;;;;;;;;;;;;;29.08;36.56;94347.44;5043664;28;9093;-61
2023/07/14 05:51:41;;;;;;;;;;;;;;;29.08;35.81;94348.19;5031073;28;7005;-61
2023/07/14 05:54:18;;;;;;;;;;;;;;;29.11;36.87;94351.94;5025960;28;9136;-61
2023/07/14 05:56:44;;;;;;;;;;;;;;;29.10;36.74;94351.19;5045534;28;7900;-61
2023/07/14 05:59:17;;;;;;;;;;;;;;;29.10;36.56;94350.47;5046313;28;7844;-60
2023/07/14 06:02:20;;;;;;;;;;;;;;;29.08;36.39;94353.75;5046468;28;9113;-60
2023/07/14 06:04:48;;;;;;;;;;;;;;;29.08;35.71;94356.50;4923876;29;7179;-61
2023/07/14 06:07:15;;;;;;;;;;;;;;;29.07;37.19;94348.75;4916717;29;8751;-61
2023/07/14 06:10:00;;;;;;;;;;;;;;;29.06;38.91;94350.75;4928873;29;7310;-62
2023/07/14 06:12:39;;;;;;;;;;;;;;;29.08;37.34;94345.44;4927612;29;8556;-61
2023/07/14 06:15:34;;;;;;;;;;;;;;;29.09;38.32;94349.69;4927138;29;9098;-62
2023/07/14 06:18:31;;;;;;;;;;;;;;;29.09;37.72;94354.50;4928882;29;9304;-60
2023/07/14 06:21:23;;;;;;;;;;;;;;;29.11;37.92;94357.47;4932425;29;8980;-61
2023/07/14 06:23:58;;;;;;;;;;;;;;;29.08;37.03;94358.53;4929731;29;7004;-62
2023/07/14 06:26:32;;;;;;;;;;;;;;;29.06;37.07;94345.22;4944927;29;7067;-61
2023/07/14 06:29:02;;;;;;;;;;;;;;;29.07;37.02;94341.19;4932863;29;9186;-61
2023/07/14 06:31:47;;;;;;;;;;;;;;;29.04;37.83;94338.72;4943537;29;7374;-62
2023/07/14 06:34:13;;;;;;;;;;;;;;;29.05;37.73;94340.22;4934141;28;7115;-62
2023/07/14 06:36:57;;;;;;;;;;;;;;;29.01;37.50;94337.75;4951057;28;8444;-61
2023/07/14 06:39:24;;;;;;;;;;;;;;;29.00;37.78;94330.00;4991200;28;7359;-61
2023/07/14 06:42:04;;;;;;;;;;;;;;;28.99;37.25;94326.47;5012733;28;8511;-62
2023/07/14 06:44:43;;;;;;;;;;;;;;;28.98;37.15;94325.00;5028012;28;9084;-62
2023/07/14 06:47:11;;;;;;;;;;;;;;;28.99;37.63;94331.31;5010737;28;9094;-61
2023/07/14 06:49:37;;;;;;;;;;;;;;;28.98;37.53;94324.25;5009355;28;7264;-62
2023/07/14 06:52:06;;;;;;;;;;;;;;;28.95;37.58;94323.28;5028453;28;9039;-61
2023/07/14 06:54:44;;;;;;;;;;;;;;;28.97;37.40;94331.81;5012422;28;7218;-62
2023/07/14 06:57:12;;;;;;;;;;;;;;;28.98;37.49;94327.03;5037000;28;9060;-61
2023/07/14 06:59:38;;;;;;;;;;;;;;;28.95;37.66;94322.53;5028988;28;7094;-62
2023/07/14 07:02:20;;;;;;;;;;;;;;;28.96;37.88;94319.25;5048575;28;7427;-62
2023/07/14 07:04:54;;;;;;;;;;;;;;;28.95;37.87;94312.22;5028015;28;9139;-62
2023/07/14 07:07:19;;;;;;;;;;;;;;;28.92;37.64;94309.78;5030361;28;6961;-61
2023/07/14 07:09:55;;;;;;;;;;;;;;;28.94;37.72;94310.00;5030679;28;9108;-61
2023/07/14 07:12:31;;;;;;;;;;;;;;;28.91;37.88;94303.50;5032825;28;7298;-62
2023/07/14 07:14:59;;;;;;;;;;;;;;;28.90;38.42;94304.78;5048444;28;8818;-62
2023/07/14 07:17:38;;;;;;;;;;;;;;;28.88;38.00;94301.78;5049297;28;6863;-62
2023/07/14 07:20:19;;;;;;;;;;;;;;;28.88;38.03;94290.72;5046619;28;7345;-62
2023/07/14 07:23:18;;;;;;;;;;;;;;;28.88;38.08;94290.72;5030876;28;9806;-61
2023/07/14 07:25:50;;;;;;;;;;;;;;;28.87;39.12;94289.25;4953307;28;9302;-62
2023/07/14 07:28:32;;;;;;;;;;;;;;;28.87;38.49;94286.47;4954607;28;7251;-62
2023/07/14 07:31:11;;;;;;;;;;;;;;;28.90;38.68;94287.44;4971203;28;9096;-62
2023/07/14 07:33:41;;;;;;;;;;;;;;;28.90;38.39;94282.66;4971696;28;8650;-62
2023/07/14 07:36:18;;;;;;;;;;;;;;;28.91;38.82;94277.84;4971121;28;7596;-62
2023/07/14 07:39:13;;;;;;;;;;;;;;;28.90;37.48;94285.41;4954009;28;6951;-62
2023/07/14 07:41:39;;;;;;;;;;;;;;;28.87;38.14;94294.78;4901746;29;8050;-61
2023/07/14 07:44:09;;;;;;;;;;;;;;;28.89;38.14;94281.16;4889125;29;7365;-63
2023/07/14 07:47:06;;;;;;;;;;;;;;;28.90;38.19;94282.66;4898976;29;8722;-61
2023/07/14 07:49:40;;;;;;;;;;;;;;;28.91;38.64;94294.44;4835275;29;7825;-62
2023/07/14 07:52:12;;;;;;;;;;;;;;;28.92;37.26;94295.94;4835342;29;7334;-62
2023/07/14 07:54:39;;;;;;;;;;;;;;;28.88;37.88;94282.41;4834195;29;7424;-62
2023/07/14 07:57:09;;;;;;;;;;;;;;;28.88;37.04;94287.94;4835769;29;6861;-62
2023/07/14 07:59:37;;;;;;;;;;;;;;;28.88;37.39;94279.63;4834605;29;9149;-62
2023/07/14 08:02:06;;;;;;;;;;;;;;;28.90;37.54;94284.66;4857931;29;7465;-62
2023/07/14 08:04:35;;;;;;;;;;;;;;;28.89;37.87;94286.69;4886138;29;7078;-62
2023/07/14 08:07:01;;;;;;;;;;;;;;;28.87;37.21;94278.16;4885591;29;8901;-61
2023/07/14 08:09:31;;;;;;;;;;;;;;;28.87;37.63;94285.72;4884750;29;7211;-61
2023/07/14 08:12:08;;;;;;;;;;;;;;;28.89;37.23;94285.94;4882472;29;7176;-62
2023/07/14 08:14:54;;;;;;;;;;;;;;;28.87;38.15;94280.94;4883684;29;7243;-62
2023/07/14 08:17:34;;;;;;;;;;;;;;;28.88;36.97;94285.19;4887687;28;7223;-61
2023/07/14 08:20:11;;;;;;;;;;;;;;;28.88;37.28;94284.47;4953311;28;7071;-61
2023/07/14 08:22:40;;;;;;;;;;;;;;;28.88;37.59;94287.94;4951371;28;8970;-61
2023/07/14 08:25:38;;;;;;;;;;;;;;;28.89;38.19;94281.16;4977497;28;8839;-61
2023/07/14 08:28:04;;;;;;;;;;;;;;;28.88;37.50;94279.63;4972757;28;7074;-61
2023/07/14 08:30:30;;;;;;;;;;;;;;;28.87;37.14;94277.41;4970538;28;7320;-61
2023/07/14 08:32:59;;;;;;;;;;;;;;;28.87;37.07;94283.69;4971538;28;8700;-61
2023/07/14 08:35:28;;;;;;;;;;;;;;;28.87;36.90;94272.63;4987729;28;7257;-62
2023/07/14 08:38:04;;;;;;;;;;;;;;;28.88;37.01;94273.38;4990301;28;8792;-61
2023/07/14 08:40:47;;;;;;;;;;;;;;;28.91;37.33;94272.28;4972243;28;7264;-61
2023/07/14 08:43:42;;;;;;;;;;;;;;;28.92;36.88;94273.78;4972136;28;7256;-61
2023/07/14 08:46:36;;;;;;;;;;;;;;;28.91;36.99;94273.03;4988369;28;8182;-65
2023/07/14 08:49:21;;;;;;;;;;;;;;;28.91;37.89;94284.13;4985471;28;9191;-64
2023/07/14 08:52:07;;;;;;;;;;;;;;;28.92;37.58;94266.25;4967581;28;7192;-65
2023/07/14 08:54:51;;;;;;;;;;;;;;;28.90;37.30;94266.03;4968089;28;7005;-64
2023/07/14 08:57:23;;;;;;;;;;;;;;;28.88;36.91;94267.84;4966812;28;7006;-65
2023/07/14 08:59:55;;;;;;;;;;;;;;;28.88;36.95;94267.84;4967577;28;7160;-64
2023/07/14 09:02:41;;;;;;;;;;;;;;;28.90;37.42;94265.28;4968460;28;6992;-64
2023/07/14 09:05:26;;;;;;;;;;;;;;;28.92;37.53;94268.25;5014669;28;7008;-65
2023/07/14 09:07:53;;;;;;;;;;;;;;;28.93;36.98;94272.50;5032500;28;7335;-65
2023/07/14 09:10:44;;;;;;;;;;;;;;;28.92;36.62;94273.78;5042750;28;9198;-65
2023/07/14 09:13:34;;;;;;;;;;;;;;;28.92;36.37;94263.47;5029853;28;7192;-65
2023/07/14 09:16:03;;;;;;;;;;;;;;;28.92;37.40;94260.69;5043125;28;7158;-65
2023/07/14 09:19:04;;;;;;;;;;;;;;;28.89;36.68;94258.25;5046644;28;9802;-65
2023/07/14 09:21:44;;;;;;;;;;;;;;;28.87;37.55;94255.28;4985024;28;8730;-65
2023/07/14 09:24:52;;;;;;;;;;;;;;;28.86;36.57;94254.53;4968983;28;9498;-65
2023/07/14 09:27:29;;;;;;;;;;;;;;;28.85;36.70;94252.28;4941900;28;7356;-65
2023/07/14 09:29:59;;;;;;;;;;;;;;;28.84;36.17;94256.34;4965736;28;9072;-65
2023/07/14 09:32:37;;;;;;;;;;;;;;;28.83;36.57;94255.59;4950211;28;8719;-65
2023/07/14 09:35:25;;;;;;;;;;;;;;;28.85;36.32;94255.81;4973299;28;7315;-65
2023/07/14 09:37:57;;;;;;;;;;;;;;;28.86;36.58;94254.53;4969633;28;7005;-65
2023/07/14 09:40:32;;;;;;;;;;;;;;;28.87;36.64;94244.94;4950713;28;8837;-65
2023/07/14 09:43:01;;;;;;;;;;;;;;;28.88;36.84;94245.69;4965753;28;8699;-66
2023/07/14 09:45:39;;;;;;;;;;;;;;;28.88;37.13;94246.41;4951483;28;8631;-65
2023/07/14 09:48:44;;;;;;;;;;;;;;;28.89;37.00;94242.38;4968467;28;7487;-65
2023/07/14 09:51:26;;;;;;;;;;;;;;;28.91;36.61;94234.28;4956553;28;7411;-65
2023/07/14 09:54:10;;;;;;;;;;;;;;;28.91;36.76;94230.75;4953064;28;7267;-61
2023/07/14 09:56:44;;;;;;;;;;;;;;;28.95;37.15;94237.47;4958953;28;8172;-61
2023/07/14 09:59:40;;;;;;;;;;;;;;;28.97;36.83;94239.72;4983832;28;7188;-62
2023/07/14 10:02:15;;;;;;;;;;;;;;;28.97;36.88;94229.34;4968366;28;8281;-61
2023/07/14 10:04:59;;;;;;;;;;;;;;;28.96;37.51;94232.69;4986670;28;6856;-61
2023/07/14 10:07:46;;;;;;;;;;;;;;;28.94;37.84;94230.44;4969726;28;6852;-61
2023/07/14 10:10:26;;;;;;;;;;;;;;;28.95;37.49;94231.16;4986748;28;6994;-62
2023/07/14 10:12:55;;;;;;;;;;;;;;;28.94;37.63;94233.22;4983951;28;7164;-61
2023/07/14 10:15:38;;;;;;;;;;;;;;;28.98;37.69;94222.56;4986717;28;7322;-61
2023/07/14 10:18:28;;;;;;;;;;;;;;;29.00;37.40;94224.78;4974144;28;7149;-61
2023/07/14 10:21:21;;;;;;;;;;;;;;;29.00;37.90;94217.22;4989305;28;9291;-61
2023/07/14 10:24:18;;;;;;;;;;;;;;;29.02;38.12;94228.50;4967811;28;7026;-62
2023/07/14 10:26:57;;;;;;;;;;;;;;;29.02;38.22;94224.97;5006481;28;7377;-61
2023/07/14 10:29:26;;;;;;;;;;;;;;;29.05;38.54;94229.47;5010923;28;9924;-61
2023/07/14 10:31:56;;;;;;;;;;;;;;;28.99;40.25;94218.50;5025131;28;9465;-61
2023/07/14 10:34:57;;;;;;;;;;;;;;;28.96;40.81;94218.81;5028128;28;9236;-62
2023/07/14 10:37:40;;;;;;;;;;;;;;;28.93;40.31;94206.81;4971007;28;7790;-62
2023/07/14 10:40:19;;;;;;;;;;;;;;;28.96;41.00;94202.22;4951677;28;7153;-62
2023/07/14 10:43:10;;;;;;;;;;;;;;;28.96;40.65;94197.44;4968852;28;8958;-61
2023/07/14 10:45:44;;;;;;;;;;;;;;;28.98;39.84;94194.88;4969684;28;9078;-62
2023/07/14 10:49:05;;;;;;;;;;;;;;;29.00;40.64;94192.28;4949992;28;7417;-62
2023/07/14 10:52:19;;;;;;;;;;;;;;;29.03;40.18;94193.25;4927657;28;7512;-62
2023/07/14 10:55:13;;;;;;;;;;;;;;;29.00;39.74;94192.28;4857740;29;7230;-61
2023/07/14 10:57:51;;;;;;;;;;;;;;;29.02;39.97;94195.28;4868767;29;7243;-63
2023/07/14 11:00:41;;;;;;;;;;;;;;;29.03;40.30;94185.69;4879014;29;9189;-62
2023/07/14 11:03:42;;;;;;;;;;;;;;;29.02;39.99;94184.19;4877060;29;9366;-61
2023/07/14 11:06:51;;;;;;;;;;;;;;;29.03;39.85;94177.38;4870861;29;7208;-62
2023/07/14 11:09:20;;;;;;;;;;;;;;;29.07;39.85;94172.25;4820482;29;7657;-62
2023/07/14 11:12:06;;;;;;;;;;;;;;;29.09;39.74;94178.00;4827750;29;6865;-62
2023/07/14 11:15:03;;;;;;;;;;;;;;;29.04;40.17;94181.63;4837486;29;7731;-62
2023/07/14 11:18:06;;;;;;;;;;;;;;;29.09;39.54;94180.00;4849142;29;7548;-62
2023/07/14 11:21:15;;;;;;;;;;;;;;;29.10;39.50;94190.53;4866855;29;7040;-61
2023/07/14 11:24:20;;;;;;;;;;;;;;;29.14;39.55;94189.47;4881971;29;9175;-62
2023/07/14 11:27:00;;;;;;;;;;;;;;;29.19;39.57;94191.41;4820141;29;8317;-62
2023/07/14 11:29:26;;;;;;;;;;;;;;;29.21;38.70;94180.53;4820826;29;7255;-63
2023/07/14 11:32:20;;;;;;;;;;;;;;;29.23;39.56;94183.50;4880301;29;7289;-62
2023/07/14 11:35:19;;;;;;;;;;;;;;;29.23;39.70;94175.19;4874200;29;7340;-62
2023/07/14 11:38:01;;;;;;;;;;;;;;;29.26;38.95;94172.06;4858373;29;7261;-62
2023/07/14 11:40:41;;;;;;;;;;;;;;;29.28;39.41;94172.28;4875204;29;7175;-62
2023/07/14 11:43:17;;;;;;;;;;;;;;;29.28;39.73;94166.72;4890100;29;9537;-61
2023/07/14 11:46:03;;;;;;;;;;;;;;;29.26;38.60;94163.75;4908483;29;7362;-61
2023/07/14 11:49:04;;;;;;;;;;;;;;;29.27;39.18;94164.50;4894098;29;7069;-62
2023/07/14 11:51:50;;;;;;;;;;;;;;;29.31;39.11;94160.13;4876054;29;8785;-62
2023/07/14 11:54:52;;;;;;;;;;;;;;;29.32;38.62;94158.81;4876359;29;10271;-62
2023/07/14 11:57:28;;;;;;;;;;;;;;;29.35;39.00;94168.09;4801327;29;7252;-62
2023/07/14 12:00:03;;;;;;;;;;;;;;;29.34;39.37;94158.31;4797650;29;7787;-62
2023/07/14 12:02:45;;;;;;;;;;;;;;;29.39;39.00;94157.41;4846931;29;7307;-62
2023/07/14 12:05:14;;;;;;;;;;;;;;;29.41;38.49;94144.50;4871851;29;7233;-62
2023/07/14 12:08:05;;;;;;;;;;;;;;;29.45;38.55;94152.50;4870890;29;8892;-61
2023/07/14 12:10:41;;;;;;;;;;;;;;;29.47;38.58;94144.38;4872601;29;7146;-62
2023/07/14 12:13:22;;;;;;;;;;;;;;;29.48;39.60;94151.38;4875005;29;9179;-62
2023/07/14 12:16:28;;;;;;;;;;;;;;;29.47;38.43;94150.63;4874316;29;7486;-62
2023/07/14 12:19:21;;;;;;;;;;;;;;;29.50;39.33;94146.03;4828159;29;8102;-62
2023/07/14 12:22:04;;;;;;;;;;;;;;;29.51;39.20;94144.75;4828987;29;7021;-63
2023/07/14 12:24:52;;;;;;;;;;;;;;;29.54;39.27;94138.13;4813141;29;7075;-62
2023/07/14 12:27:45;;;;;;;;;;;;;;;29.55;39.35;94147.94;4843725;29;7084;-62
2023/07/14 12:30:29;;;;;;;;;;;;;;;29.57;39.40;94145.38;4855354;29;9410;-62
2023/07/14 12:33:13;;;;;;;;;;;;;;;29.58;38.92;94138.53;4876224;28;6999;-63
2023/07/14 12:36:04;;;;;;;;;;;;;;;29.58;39.67;94139.25;4969946;28;7151;-63
2023/07/14 12:38:34;;;;;;;;;;;;;;;29.59;38.47;94128.94;4951722;28;9298;-63
2023/07/14 12:41:19;;;;;;;;;;;;;;;29.61;38.56;94127.09;4963198;28;7118;-63
2023/07/14 12:44:00;;;;;;;;;;;;;;;29.65;38.56;94129.53;4968309;28;8024;-63
2023/07/14 12:46:36;;;;;;;;;;;;;;;29.66;38.55;94120.69;4965025;28;7681;-62
2023/07/14 12:49:30;;;;;;;;;;;;;;;29.67;38.53;94121.41;4962083;28;7054;-62
2023/07/14 12:52:32;;;;;;;;;;;;;;;29.66;39.08;94126.22;5011187;28;8188;-63
2023/07/14 12:55:05;;;;;;;;;;;;;;;29.67;39.58;94129.72;4928975;28;8496;-64
2023/07/14 12:57:35;;;;;;;;;;;;;;;29.69;38.36;94125.13;4945742;28;8976;-63
2023/07/14 13:00:27;;;;;;;;;;;;;;;29.70;38.89;94128.63;4933403;28;7233;-63
2023/07/14 13:03:09;;;;;;;;;;;;;;;29.72;38.55;94126.06;4963050;28;7573;-63
2023/07/14 13:05:41;;;;;;;;;;;;;;;29.75;39.50;94114.66;4950001;28;8185;-64
2023/07/14 13:08:19;;;;;;;;;;;;;;;29.75;39.12;94122.25;4964508;28;6994;-63
2023/07/14 13:10:48;;;;;;;;;;;;;;;29.72;38.52;94114.97;4961362;28;7164;-64
2023/07/14 13:13:41;;;;;;;;;;;;;;;29.75;38.76;94108.38;4946326;28;9321;-64
2023/07/14 13:16:11;;;;;;;;;;;;;;;29.74;38.51;94107.63;4963287;28;7262;-64
2023/07/14 13:19:19;;;;;;;;;;;;;;;29.73;39.31;94106.09;4952160;28;9112;-65
2023/07/14 13:21:48;;;;;;;;;;;;;;;29.70;39.38;94093.34;4952482;28;7245;-64
2023/07/14 13:24:35;;;;;;;;;;;;;;;29.72;39.54;94093.53;4950469;28;8769;-61
2023/07/14 13:27:19;;;;;;;;;;;;;;;29.73;39.46;94077.66;4968400;28;9501;-62
2023/07/14 13:30:29;;;;;;;;;;;;;;;29.78;39.81;94080.28;4973279;28;7152;-62
2023/07/14 13:33:33;;;;;;;;;;;;;;;29.81;39.07;94084.00;4965437;28;7616;-62
2023/07/14 13:36:22;;;;;;;;;;;;;;;29.81;38.80;94072.91;4987170;28;9062;-62
2023/07/14 13:39:14;;;;;;;;;;;;;;;29.83;39.05;94073.13;4986175;28;7506;-62
2023/07/14 13:41:54;;;;;;;;;;;;;;;29.85;39.26;94069.78;4970709;28;7987;-62
2023/07/14 13:44:54;;;;;;;;;;;;;;;29.85;39.69;94062.22;4971390;28;9186;-62
2023/07/14 13:47:43;;;;;;;;;;;;;;;29.88;39.30;94065.94;4974385;28;9088;-62
2023/07/14 13:50:42;;;;;;;;;;;;;;;29.85;38.87;94056.66;4989741;28;7334;-62
2023/07/14 13:53:17;;;;;;;;;;;;;;;29.85;39.63;94051.13;4972531;28;7260;-62
2023/07/14 13:55:43;;;;;;;;;;;;;;;29.82;39.81;94049.44;4989839;28;9080;-62
2023/07/14 13:58:28;;;;;;;;;;;;;;;29.85;40.19;94051.13;4971221;28;7116;-62
2023/07/14 14:01:03;;;;;;;;;;;;;;;29.83;39.48;94048.16;4972063;28;7270;-62
2023/07/14 14:03:29;;;;;;;;;;;;;;;29.83;40.18;94045.38;4972087;28;8098;-62
2023/07/14 14:06:10;;;;;;;;;;;;;;;29.82;40.26;94041.13;4994421;28;9049;-62
2023/07/14 14:08:40;;;;;;;;;;;;;;;29.86;39.40;94047.06;5028348;28;7001;-62